createdAt,value
2017-11-24T00:01:16.571Z,0.47
2017-11-24T00:03:44.135Z,0.52
2017-11-24T00:06:11.731Z,0.50
2017-11-24T00:08:39.335Z,0.47
2017-11-24T00:11:07.181Z,0.46
2017-11-24T00:13:34.831Z,0.41
2017-11-24T00:16:02.452Z,0.36
2017-11-24T00:18:30.086Z,0.36
2017-11-24T00:20:57.700Z,0.33
2017-11-24T00:23:25.278Z,0.32
2017-11-24T00:25:52.857Z,0.29
2017-11-24T00:28:20.452Z,0.33
2017-11-24T00:30:48.041Z,0.31
2017-11-24T00:33:15.601Z,0.31
2017-11-24T00:35:43.196Z,0.41
2017-11-24T00:38:10.830Z,0.52
2017-11-24T00:40:38.423Z,0.52
2017-11-24T00:43:06.108Z,0.51
2017-11-24T00:45:34.108Z,0.50
2017-11-24T00:48:01.667Z,0.36
2017-11-24T00:50:29.231Z,0.15
2017-11-24T00:52:56.866Z,0.01
2017-11-24T00:55:24.464Z,-0.04
2017-11-24T00:57:52.030Z,-0.15
2017-11-24T01:00:19.587Z,-0.27
2017-11-24T01:02:47.157Z,-0.32
2017-11-24T01:05:14.708Z,-0.34
2017-11-24T01:07:42.278Z,-0.18
2017-11-24T01:10:09.895Z,-0.14
2017-11-24T01:12:37.451Z,-0.26
2017-11-24T01:15:05.138Z,-0.30
2017-11-24T01:17:32.752Z,-0.34
2017-11-24T01:20:00.315Z,-0.38
2017-11-24T01:22:27.878Z,-0.37
2017-11-24T01:24:55.474Z,-0.24
2017-11-24T01:27:23.738Z,-0.20
2017-11-24T01:29:51.446Z,-0.27
2017-11-24T01:32:19.047Z,-0.33
2017-11-24T01:34:46.614Z,-0.35
2017-11-24T01:37:14.379Z,-0.35
2017-11-24T01:39:42.022Z,-0.37
2017-11-24T01:42:09.772Z,-0.36
2017-11-24T01:44:37.339Z,-0.35
2017-11-24T01:47:05.131Z,-0.30
2017-11-24T01:49:32.720Z,-0.31
2017-11-24T01:52:00.323Z,-0.28
2017-11-24T01:54:27.924Z,-0.27
2017-11-24T01:56:55.532Z,-0.28
2017-11-24T01:59:23.107Z,-0.23
2017-11-24T02:01:50.724Z,-0.23
2017-11-24T02:04:18.300Z,-0.25
2017-11-24T02:06:45.867Z,-0.23
2017-11-24T02:09:13.583Z,-0.14
2017-11-24T02:11:41.130Z,-0.08
2017-11-24T02:14:08.737Z,-0.10
2017-11-24T02:16:36.459Z,-0.03
2017-11-24T02:19:04.105Z,0.04
2017-11-24T02:21:31.740Z,0.12
2017-11-24T02:23:59.313Z,0.16
2017-11-24T02:26:26.884Z,0.14
2017-11-24T02:28:54.479Z,0.21
2017-11-24T02:31:22.891Z,0.28
2017-11-24T02:33:50.450Z,0.27
2017-11-24T02:36:17.986Z,0.22
2017-11-24T02:38:45.606Z,0.26
2017-11-24T02:41:13.324Z,0.23
2017-11-24T02:43:41.043Z,0.29
2017-11-24T02:46:08.646Z,0.32
2017-11-24T02:48:36.227Z,0.30
2017-11-24T02:51:03.892Z,0.34
2017-11-24T02:53:31.915Z,0.44
2017-11-24T02:55:59.828Z,0.41
2017-11-24T02:58:27.407Z,0.39
2017-11-24T03:00:54.970Z,0.37
2017-11-24T03:03:22.809Z,0.38
2017-11-24T03:05:50.350Z,0.44
2017-11-24T03:08:17.934Z,0.47
2017-11-24T03:10:45.532Z,0.54
2017-11-24T03:13:13.537Z,0.55
2017-11-24T03:15:41.140Z,0.53
2017-11-24T03:18:08.766Z,0.69
2017-11-24T03:20:36.312Z,0.72
2017-11-24T03:23:06.097Z,0.74
2017-11-24T03:25:33.720Z,0.75
2017-11-24T03:28:02.061Z,0.77
2017-11-24T03:30:29.652Z,0.82
2017-11-24T03:32:57.222Z,0.79
2017-11-24T03:35:24.815Z,0.70
2017-11-24T03:37:52.396Z,0.43
2017-11-24T03:40:19.987Z,0.27
2017-11-24T03:42:47.556Z,0.22
2017-11-24T03:45:15.433Z,0.18
2017-11-24T03:47:43.024Z,0.19
2017-11-24T03:50:10.807Z,0.38
2017-11-24T03:52:38.607Z,0.44
2017-11-24T03:55:06.181Z,0.44
2017-11-24T03:57:33.840Z,0.35
2017-11-24T04:00:01.551Z,0.20
2017-11-24T04:02:29.142Z,0.13
2017-11-24T04:04:56.699Z,0.13
2017-11-24T04:07:24.266Z,0.10
2017-11-24T04:09:51.853Z,-0.01
2017-11-24T04:12:20.162Z,-0.03
2017-11-24T04:14:47.736Z,-0.18
2017-11-24T04:17:15.333Z,-0.30
2017-11-24T04:19:42.963Z,-0.31
2017-11-24T04:22:10.603Z,-0.27
2017-11-24T04:24:38.188Z,-0.20
2017-11-24T04:27:06.132Z,-0.24
2017-11-24T04:29:33.682Z,-0.32
2017-11-24T04:32:01.240Z,-0.44
2017-11-24T04:34:28.864Z,-0.49
2017-11-24T04:36:56.396Z,-0.34
2017-11-24T04:39:23.974Z,-0.31
2017-11-24T04:41:51.579Z,-0.40
2017-11-24T04:44:19.245Z,-0.60
2017-11-24T04:46:46.896Z,-0.72
2017-11-24T04:49:14.503Z,-0.82
2017-11-24T04:51:42.089Z,-0.91
2017-11-24T04:54:09.698Z,-0.88
2017-11-24T04:56:37.302Z,-0.94
2017-11-24T04:59:04.857Z,-0.97
2017-11-24T05:01:32.427Z,-1.01
2017-11-24T05:04:00.038Z,-1.00
2017-11-24T05:06:27.618Z,-1.00
2017-11-24T05:08:55.182Z,-1.04
2017-11-24T05:11:22.774Z,-0.94
2017-11-24T05:13:50.385Z,-0.92
2017-11-24T05:16:17.952Z,-1.04
2017-11-24T05:18:45.584Z,-1.13
2017-11-24T05:21:13.514Z,-1.12
2017-11-24T05:23:41.126Z,-1.13
2017-11-24T05:26:08.768Z,-1.20
2017-11-24T05:28:36.340Z,-1.19
2017-11-24T05:31:03.955Z,-1.26
2017-11-24T05:33:31.531Z,-1.31
2017-11-24T05:35:59.111Z,-1.31
2017-11-24T05:38:26.672Z,-1.31
2017-11-24T05:40:54.265Z,-1.30
2017-11-24T05:45:54.631Z,-1.21
2017-11-24T05:48:22.231Z,-1.25
2017-11-24T05:50:49.808Z,-1.33
2017-11-24T05:53:18.102Z,-1.29
2017-11-24T05:55:45.690Z,-1.22
2017-11-24T05:58:13.313Z,-1.20
2017-11-24T06:00:40.962Z,-1.24
2017-11-24T06:03:08.692Z,-1.26
2017-11-24T06:05:37.174Z,-1.28
2017-11-24T06:08:04.778Z,-1.35
2017-11-24T06:10:32.359Z,-1.41
2017-11-24T06:12:59.937Z,-1.43
2017-11-24T06:15:27.542Z,-1.43
2017-11-24T06:17:55.154Z,-1.43
2017-11-24T06:20:22.756Z,-1.42
2017-11-24T06:22:50.347Z,-1.36
2017-11-24T06:25:17.955Z,-1.42
2017-11-24T06:27:45.566Z,-1.42
2017-11-24T06:30:13.204Z,-1.40
2017-11-24T06:32:40.791Z,-1.32
2017-11-24T06:35:08.386Z,-1.31
2017-11-24T06:37:35.984Z,-1.33
2017-11-24T06:40:03.588Z,-1.36
2017-11-24T06:42:31.209Z,-1.34
2017-11-24T06:44:58.797Z,-1.23
2017-11-24T06:47:26.640Z,-1.22
2017-11-24T06:49:54.271Z,-1.19
2017-11-24T06:52:22.146Z,-1.16
2017-11-24T06:54:49.736Z,-1.17
2017-11-24T06:57:17.429Z,-1.18
2017-11-24T06:59:45.181Z,-1.19
2017-11-24T07:02:14.139Z,-1.10
2017-11-24T07:04:41.803Z,-1.00
2017-11-24T07:07:09.532Z,-1.01
2017-11-24T07:09:37.191Z,-0.99
2017-11-24T07:12:05.842Z,-0.93
2017-11-24T07:14:33.423Z,-0.79
2017-11-24T07:17:01.054Z,-0.59
2017-11-24T07:19:28.774Z,-0.39
2017-11-24T07:21:56.725Z,-0.29
2017-11-24T07:24:24.320Z,-0.15
2017-11-24T07:26:52.004Z,0.06
2017-11-24T07:29:19.600Z,0.16
2017-11-24T07:31:47.512Z,0.26
2017-11-24T07:34:15.207Z,0.34
2017-11-24T07:36:42.814Z,0.44
2017-11-24T07:39:11.395Z,0.48
2017-11-24T07:41:39.019Z,0.71
2017-11-24T07:44:06.606Z,0.84
2017-11-24T07:46:34.202Z,0.97
2017-11-24T07:49:01.797Z,1.01
2017-11-24T07:51:29.351Z,1.10
2017-11-24T07:53:56.939Z,1.15
2017-11-24T07:56:24.545Z,1.19
2017-11-24T07:58:52.121Z,1.30
2017-11-24T08:01:19.700Z,1.53
2017-11-24T08:03:47.352Z,1.67
2017-11-24T08:06:15.144Z,1.83
2017-11-24T08:08:42.715Z,2.00
2017-11-24T08:11:10.465Z,2.13
2017-11-24T08:13:38.049Z,2.30
2017-11-24T08:16:05.654Z,2.32
2017-11-24T08:18:33.311Z,2.61
2017-11-24T08:21:00.942Z,2.76
2017-11-24T08:23:28.695Z,2.89
2017-11-24T08:25:56.381Z,3.15
2017-11-24T08:28:24.867Z,3.25
2017-11-24T08:30:52.443Z,3.38
2017-11-24T08:33:20.181Z,3.47
2017-11-24T08:35:47.847Z,3.55
2017-11-24T08:38:15.532Z,3.63
2017-11-24T08:40:43.178Z,3.81
2017-11-24T08:43:11.157Z,4.02
2017-11-24T08:45:38.969Z,4.11
2017-11-24T08:48:12.063Z,4.17
2017-11-24T08:50:39.635Z,4.30
2017-11-24T08:53:07.396Z,4.35
2017-11-24T08:55:35.153Z,4.45
2017-11-24T08:58:02.747Z,4.57
2017-11-24T09:00:30.324Z,4.70
2017-11-24T09:02:57.888Z,4.76
2017-11-24T09:05:25.645Z,4.92
2017-11-24T09:07:53.267Z,5.12
2017-11-24T09:10:20.830Z,5.28
2017-11-24T09:12:48.433Z,5.39
2017-11-24T09:15:16.021Z,5.63
2017-11-24T09:17:43.598Z,5.81
2017-11-24T09:20:11.216Z,5.90
2017-11-24T09:22:39.469Z,6.06
2017-11-24T09:25:07.126Z,6.23
2017-11-24T09:27:34.820Z,6.35
2017-11-24T09:30:02.410Z,6.43
2017-11-24T09:32:30.028Z,6.56
2017-11-24T09:34:57.579Z,6.82
2017-11-24T09:37:25.115Z,6.84
2017-11-24T09:39:52.705Z,6.89
2017-11-24T09:42:20.277Z,7.04
2017-11-24T09:44:47.869Z,7.15
2017-11-24T09:47:15.456Z,7.19
2017-11-24T09:49:43.035Z,7.00
2017-11-24T09:52:10.696Z,7.02
2017-11-24T09:54:38.314Z,7.10
2017-11-24T09:57:05.941Z,7.22
2017-11-24T09:59:33.541Z,7.32
2017-11-24T10:02:01.113Z,7.26
2017-11-24T10:04:28.660Z,7.33
2017-11-24T10:06:56.220Z,7.26
2017-11-24T10:09:23.842Z,7.47
2017-11-24T10:11:51.617Z,7.51
2017-11-24T10:14:19.189Z,7.70
2017-11-24T10:16:46.756Z,7.88
2017-11-24T10:19:14.393Z,7.92
2017-11-24T10:21:47.438Z,7.80
2017-11-24T10:24:15.142Z,7.78
2017-11-24T10:26:42.710Z,7.77
2017-11-24T10:29:10.504Z,7.80
2017-11-24T10:31:38.102Z,7.69
2017-11-24T10:34:05.665Z,7.62
2017-11-24T10:36:33.214Z,7.63
2017-11-24T10:39:00.841Z,7.83
2017-11-24T10:41:28.391Z,7.77
2017-11-24T10:43:55.962Z,7.66
2017-11-24T10:46:23.646Z,7.73
2017-11-24T10:48:51.185Z,7.70
2017-11-24T10:51:18.724Z,7.96
2017-11-24T10:53:46.357Z,7.92
2017-11-24T10:56:13.976Z,8.04
2017-11-24T10:58:41.552Z,8.07
2017-11-24T11:01:09.201Z,8.18
2017-11-24T11:03:36.738Z,8.05
2017-11-24T11:06:04.293Z,8.00
2017-11-24T11:08:31.844Z,8.13
2017-11-24T11:10:59.427Z,8.26
2017-11-24T11:13:27.006Z,8.26
2017-11-24T11:15:54.607Z,8.28
2017-11-24T11:18:22.133Z,8.42
2017-11-24T11:20:49.673Z,8.48
2017-11-24T11:23:17.222Z,8.68
2017-11-24T11:25:44.789Z,8.77
2017-11-24T11:28:22.843Z,8.80
2017-11-24T11:30:50.405Z,8.84
2017-11-24T11:33:18.007Z,8.76
2017-11-24T11:35:45.574Z,8.91
2017-11-24T11:38:13.160Z,9.07
2017-11-24T11:40:41.008Z,9.22
2017-11-24T11:43:08.580Z,9.40
2017-11-24T11:45:36.830Z,9.27
2017-11-24T11:48:04.384Z,9.37
2017-11-24T11:50:31.944Z,9.55
2017-11-24T11:52:59.545Z,9.55
2017-11-24T11:55:27.133Z,9.55
2017-11-24T11:57:54.701Z,9.59
2017-11-24T12:00:22.272Z,9.92
2017-11-24T12:02:49.867Z,10.23
2017-11-24T12:05:17.390Z,10.50
2017-11-24T12:07:44.926Z,10.14
2017-11-24T12:10:12.659Z,10.17
2017-11-24T12:12:40.190Z,10.12
2017-11-24T12:15:07.834Z,9.95
2017-11-24T12:17:35.446Z,9.97
2017-11-24T12:20:03.011Z,9.92
2017-11-24T12:22:30.558Z,10.10
2017-11-24T12:24:58.132Z,10.14
2017-11-24T12:27:25.678Z,10.04
2017-11-24T12:29:53.257Z,10.48
2017-11-24T12:32:20.875Z,10.25
2017-11-24T12:34:48.457Z,10.85
2017-11-24T12:37:16.022Z,11.07
2017-11-24T12:39:43.587Z,10.26
2017-11-24T12:42:11.145Z,10.65
2017-11-24T12:44:38.692Z,9.93
2017-11-24T12:47:06.326Z,9.52
2017-11-24T12:49:33.885Z,9.56
2017-11-24T12:52:01.452Z,9.44
2017-11-24T12:54:29.030Z,9.29
2017-11-24T12:56:56.579Z,9.18
2017-11-24T12:59:24.182Z,8.44
2017-11-24T13:01:51.749Z,8.04
2017-11-24T13:04:19.304Z,8.30
2017-11-24T13:06:46.889Z,8.16
2017-11-24T13:09:14.474Z,7.80
2017-11-24T13:11:42.027Z,8.02
2017-11-24T13:14:09.587Z,7.93
2017-11-24T13:16:37.149Z,8.10
2017-11-24T13:19:04.699Z,8.10
2017-11-24T13:21:32.307Z,7.96
2017-11-24T13:23:59.850Z,7.54
2017-11-24T13:26:27.386Z,7.21
2017-11-24T13:28:54.945Z,6.81
2017-11-24T13:31:26.155Z,6.78
2017-11-24T13:33:53.699Z,6.89
2017-11-24T13:36:21.248Z,6.52
2017-11-24T13:38:48.810Z,6.37
2017-11-24T13:41:16.350Z,6.15
2017-11-24T13:43:43.881Z,5.90
2017-11-24T13:46:11.492Z,5.94
2017-11-24T13:48:39.052Z,6.06
2017-11-24T13:51:06.639Z,6.02
2017-11-24T13:53:34.209Z,5.85
2017-11-24T13:56:01.740Z,5.93
2017-11-24T13:58:29.327Z,5.96
2017-11-24T14:00:56.954Z,5.89
2017-11-24T14:03:24.520Z,6.09
2017-11-24T14:05:52.116Z,6.24
2017-11-24T14:08:19.748Z,6.36
2017-11-24T14:10:47.278Z,6.29
2017-11-24T14:13:14.829Z,6.25
2017-11-24T14:15:42.423Z,6.19
2017-11-24T14:18:09.960Z,6.14
2017-11-24T14:20:37.526Z,5.91
2017-11-24T14:23:05.134Z,5.42
2017-11-24T14:25:32.679Z,5.21
2017-11-24T14:28:00.256Z,5.19
2017-11-24T14:30:27.916Z,5.28
2017-11-24T14:32:55.473Z,5.37
2017-11-24T14:35:23.053Z,5.43
2017-11-24T14:37:50.626Z,5.35
2017-11-24T14:40:18.169Z,5.28
2017-11-24T14:42:45.698Z,4.99
2017-11-24T14:45:13.254Z,4.96
2017-11-24T14:47:40.810Z,5.00
2017-11-24T14:50:08.342Z,4.73
2017-11-24T14:52:35.969Z,4.73
2017-11-24T14:55:03.524Z,4.68
2017-11-24T14:57:31.072Z,4.70
2017-11-24T14:59:58.649Z,4.41
2017-11-24T15:02:26.187Z,4.40
2017-11-24T15:04:53.755Z,4.39
2017-11-24T15:07:21.344Z,4.17
2017-11-24T15:09:48.892Z,4.18
2017-11-24T15:12:16.637Z,4.12
2017-11-24T15:14:44.206Z,4.06
2017-11-24T15:17:12.192Z,4.05
2017-11-24T15:19:40.128Z,3.99
2017-11-24T15:22:08.311Z,3.92
2017-11-24T15:24:35.882Z,3.76
2017-11-24T15:27:03.531Z,3.70
2017-11-24T15:29:31.110Z,3.57
2017-11-24T15:31:58.669Z,3.58
2017-11-24T15:34:26.243Z,3.56
2017-11-24T15:36:53.838Z,3.42
2017-11-24T15:39:21.422Z,3.27
2017-11-24T15:41:49.067Z,3.14
2017-11-24T15:44:16.653Z,3.08
2017-11-24T15:46:44.243Z,3.01
2017-11-24T15:49:12.016Z,2.93
2017-11-24T15:51:39.772Z,2.89
2017-11-24T15:54:07.360Z,2.70
2017-11-24T15:56:35.180Z,2.84
2017-11-24T15:59:02.916Z,2.81
2017-11-24T16:01:30.642Z,2.78
2017-11-24T16:04:00.598Z,2.79
2017-11-24T16:06:28.186Z,2.80
2017-11-24T16:08:55.755Z,2.84
2017-11-24T16:11:23.356Z,2.82
2017-11-24T16:13:50.928Z,2.84
2017-11-24T16:16:18.522Z,2.71
2017-11-24T16:18:46.115Z,2.59
2017-11-24T16:21:13.782Z,2.51
2017-11-24T16:23:41.343Z,2.40
2017-11-24T16:26:08.925Z,2.34
2017-11-24T16:28:36.514Z,2.24
2017-11-24T16:31:04.099Z,2.20
2017-11-24T16:33:32.426Z,2.20
2017-11-24T16:36:00.057Z,2.27
2017-11-24T16:38:27.617Z,2.28
2017-11-24T16:40:55.161Z,2.22
2017-11-24T16:43:24.236Z,2.09
2017-11-24T16:45:51.917Z,2.01
2017-11-24T16:48:19.511Z,1.94
2017-11-24T16:50:47.123Z,1.87
2017-11-24T16:53:14.673Z,1.90
2017-11-24T16:55:42.275Z,1.93
2017-11-24T16:58:09.893Z,1.85
2017-11-24T17:00:37.464Z,1.82
2017-11-24T17:03:05.209Z,1.78
2017-11-24T17:05:32.797Z,1.79
2017-11-24T17:08:00.439Z,1.78
2017-11-24T17:10:28.035Z,1.71
2017-11-24T17:12:56.691Z,1.68
2017-11-24T17:15:24.375Z,1.70
2017-11-24T17:17:51.991Z,1.74
2017-11-24T17:20:19.591Z,1.67
2017-11-24T17:22:47.553Z,1.63
2017-11-24T17:25:15.201Z,1.64
2017-11-24T17:27:42.821Z,1.66
2017-11-24T17:30:11.453Z,1.62
2017-11-24T17:32:39.079Z,1.63
2017-11-24T17:35:06.645Z,1.63
2017-11-24T17:37:34.260Z,1.65
2017-11-24T17:40:01.853Z,1.64
2017-11-24T17:42:29.487Z,1.68
2017-11-24T17:44:57.240Z,1.65
2017-11-24T17:47:24.910Z,1.71
2017-11-24T17:49:52.484Z,1.70
2017-11-24T17:52:20.077Z,1.69
2017-11-24T17:54:47.625Z,1.68
2017-11-24T17:57:15.176Z,1.71
2017-11-24T17:59:42.786Z,1.83
2017-11-24T18:02:14.287Z,1.79
2017-11-24T18:04:41.843Z,1.75
2017-11-24T18:07:09.858Z,1.73
2017-11-24T18:09:38.108Z,1.83
2017-11-24T18:12:05.696Z,1.91
2017-11-24T18:14:33.333Z,1.96
2017-11-24T18:17:00.906Z,1.88
2017-11-24T18:19:28.524Z,1.72
2017-11-24T18:21:56.321Z,1.66
2017-11-24T18:24:23.882Z,1.65
2017-11-24T18:26:51.496Z,1.66
2017-11-24T18:29:19.126Z,1.71
2017-11-24T18:31:46.760Z,1.78
2017-11-24T18:34:14.356Z,1.84
2017-11-24T18:36:42.000Z,1.78
2017-11-24T18:39:09.769Z,1.78
2017-11-24T18:41:37.430Z,1.81
2017-11-24T18:44:05.029Z,1.84
2017-11-24T18:46:32.636Z,1.86
2017-11-24T18:49:00.218Z,1.93
2017-11-24T18:51:27.857Z,2.00
2017-11-24T18:53:55.456Z,2.07
2017-11-24T18:56:23.117Z,2.19
2017-11-24T18:58:50.771Z,2.15
2017-11-24T19:01:18.354Z,2.18
2017-11-24T19:03:48.540Z,2.23
2017-11-24T19:06:16.158Z,1.98
2017-11-24T19:08:44.432Z,1.90
2017-11-24T19:11:12.083Z,1.81
2017-11-24T19:13:39.659Z,1.78
2017-11-24T19:16:07.220Z,1.86
2017-11-24T19:18:34.837Z,2.00
2017-11-24T19:21:02.617Z,2.07
2017-11-24T19:23:30.201Z,2.07
2017-11-24T19:25:57.897Z,2.21
2017-11-24T19:28:25.489Z,2.10
2017-11-24T19:30:53.109Z,2.10
2017-11-24T19:33:20.751Z,2.17
2017-11-24T19:35:48.548Z,2.26
2017-11-24T19:38:16.204Z,2.31
2017-11-24T19:40:43.814Z,2.29
2017-11-24T19:43:11.639Z,2.30
2017-11-24T19:45:39.202Z,2.31
2017-11-24T19:48:08.523Z,2.18
2017-11-24T19:50:36.181Z,1.96
2017-11-24T19:53:03.776Z,1.88
2017-11-24T19:55:31.361Z,1.88
2017-11-24T19:57:58.915Z,1.86
2017-11-24T20:00:26.533Z,1.90
2017-11-24T20:02:54.098Z,1.99
2017-11-24T20:05:21.780Z,2.08
2017-11-24T20:07:49.350Z,2.10
2017-11-24T20:10:16.942Z,1.92
2017-11-24T20:12:44.614Z,1.84
2017-11-24T20:15:12.275Z,1.74
2017-11-24T20:17:39.845Z,1.78
2017-11-24T20:20:07.439Z,2.01
2017-11-24T20:22:35.020Z,2.06
2017-11-24T20:25:02.575Z,2.06
2017-11-24T20:27:30.184Z,2.02
2017-11-24T20:29:57.797Z,1.98
2017-11-24T20:32:25.386Z,1.84
2017-11-24T20:34:52.997Z,1.84
2017-11-24T20:37:20.568Z,1.61
2017-11-24T20:39:48.144Z,1.47
2017-11-24T20:42:15.730Z,1.47
2017-11-24T20:44:43.306Z,1.58
2017-11-24T20:47:10.907Z,1.59
2017-11-24T20:49:38.498Z,1.62
2017-11-24T20:52:06.064Z,1.57
2017-11-24T20:54:33.643Z,1.62
2017-11-24T20:57:01.241Z,1.73
2017-11-24T20:59:28.814Z,1.85
2017-11-24T21:01:56.428Z,1.93
2017-11-24T21:04:24.035Z,1.96
2017-11-24T21:06:51.610Z,2.01
2017-11-24T21:09:19.191Z,2.03
2017-11-24T21:11:46.777Z,2.08
2017-11-24T21:14:14.387Z,2.01
2017-11-24T21:16:42.167Z,1.83
2017-11-24T21:19:09.958Z,1.80
2017-11-24T21:21:37.514Z,1.74
2017-11-24T21:24:05.147Z,1.55
2017-11-24T21:26:32.802Z,1.61
2017-11-24T21:29:00.447Z,1.43
2017-11-24T21:34:18.476Z,1.51
2017-11-24T21:36:46.073Z,1.52
2017-11-24T21:39:13.674Z,1.42
2017-11-24T21:41:41.284Z,1.51
2017-11-24T21:44:08.845Z,1.61
2017-11-24T21:46:36.402Z,1.64
2017-11-24T21:49:04.055Z,1.77
2017-11-24T21:51:31.703Z,1.79
2017-11-24T21:53:59.245Z,1.75
2017-11-24T21:56:27.849Z,1.60
2017-11-24T21:58:55.448Z,1.63
2017-11-24T22:01:23.008Z,1.66
2017-11-24T22:03:50.600Z,1.58
2017-11-24T22:06:18.219Z,1.55
2017-11-24T22:08:45.773Z,1.44
2017-11-24T22:11:13.391Z,1.39
2017-11-24T22:13:40.960Z,1.41
2017-11-24T22:16:08.624Z,1.44
2017-11-24T22:18:36.360Z,1.47
2017-11-24T22:21:04.036Z,1.49
2017-11-24T22:23:31.604Z,1.58
2017-11-24T22:25:59.156Z,1.68
2017-11-24T22:28:26.770Z,1.63
2017-11-24T22:30:54.491Z,1.49
2017-11-24T22:33:22.162Z,1.37
2017-11-24T22:35:49.751Z,1.31
2017-11-24T22:38:17.405Z,1.23
2017-11-24T22:40:44.983Z,1.28
2017-11-24T22:43:12.811Z,1.35
2017-11-24T22:45:40.460Z,1.23
2017-11-24T22:48:08.059Z,1.13
2017-11-24T22:50:35.675Z,1.06
2017-11-24T22:53:03.360Z,0.96
2017-11-24T22:55:31.079Z,0.95
2017-11-24T22:57:58.691Z,1.23
2017-11-24T23:00:26.257Z,1.32
2017-11-24T23:02:53.856Z,1.41
2017-11-24T23:05:21.429Z,1.12
2017-11-24T23:07:50.599Z,1.12
2017-11-24T23:10:18.685Z,1.17
2017-11-24T23:12:46.269Z,1.09
2017-11-24T23:15:13.894Z,1.11
2017-11-24T23:17:41.510Z,1.26
2017-11-24T23:20:09.096Z,1.42
2017-11-24T23:22:36.667Z,1.43
2017-11-24T23:25:04.929Z,1.20
2017-11-24T23:27:32.484Z,1.08
2017-11-24T23:30:00.074Z,1.02
2017-11-24T23:32:27.724Z,0.83
2017-11-24T23:34:55.295Z,0.74
2017-11-24T23:37:22.856Z,0.73
2017-11-24T23:39:50.477Z,0.86
2017-11-24T23:42:18.104Z,0.82
2017-11-24T23:44:45.656Z,0.76
2017-11-24T23:47:13.251Z,0.84
2017-11-24T23:49:40.843Z,1.02
2017-11-24T23:52:08.399Z,1.12
2017-11-24T23:54:36.048Z,1.08
2017-11-24T23:57:03.603Z,1.19
2017-11-24T23:59:31.187Z,1.19
